createdAt,value
2022-10-01T00:01:06.721Z,100203.75
2022-10-01T00:03:35.170Z,100190.75
2022-10-01T00:06:17.639Z,100193.69
2022-10-01T00:08:48.762Z,100185.94
2022-10-01T00:11:24.735Z,100200.50
2022-10-01T00:13:52.789Z,100190.97
2022-10-01T00:16:21.816Z,100185.56
2022-10-01T00:18:49.925Z,100186.03
2022-10-01T00:21:21.928Z,100181.75
2022-10-01T00:23:53.265Z,100177.94
2022-10-01T00:26:23.281Z,100174.41
2022-10-01T00:28:54.793Z,100161.22
2022-10-01T00:31:21.566Z,100156.47
2022-10-01T00:33:48.500Z,100141.72
2022-10-01T00:36:15.048Z,100138.69
2022-10-01T00:38:42.244Z,100132.13
2022-10-01T00:41:09.599Z,100099.06
2022-10-01T00:43:40.118Z,100106.13
2022-10-01T00:46:13.413Z,100094.69
2022-10-01T00:49:03.784Z,100106.03
2022-10-01T00:51:34.144Z,100097.63
2022-10-01T00:54:12.012Z,100089.97
2022-10-01T00:56:39.139Z,100087.22
2022-10-01T00:59:06.790Z,100075.78
2022-10-01T01:01:37.477Z,100069.91
2022-10-01T01:04:04.589Z,100071.69
2022-10-01T01:06:31.056Z,100069.66
2022-10-01T01:08:57.554Z,100063.88
2022-10-01T01:11:45.713Z,100066.88
2022-10-01T01:14:18.814Z,100059.75
2022-10-01T01:17:11.615Z,100055.75
2022-10-01T01:20:16.810Z,100042.25
2022-10-01T01:22:55.000Z,100030.56
2022-10-01T01:25:30.509Z,100023.81
2022-10-01T01:28:13.565Z,100009.09
2022-10-01T01:30:41.371Z,99992.59
2022-10-01T01:33:15.712Z,99994.09
2022-10-01T01:35:47.885Z,99981.16
2022-10-01T01:38:20.251Z,99985.84
2022-10-01T01:40:51.673Z,99961.78
2022-10-01T01:43:24.171Z,99955.88
2022-10-01T01:45:55.181Z,99957.75
2022-10-01T01:48:24.214Z,99934.66
2022-10-01T01:51:17.215Z,99926.53
2022-10-01T01:53:43.871Z,99914.69
2022-10-01T01:56:10.685Z,99935.91
2022-10-01T01:58:38.520Z,99950.25
2022-10-01T02:01:05.343Z,99953.81
2022-10-01T02:03:35.103Z,99930.84
2022-10-01T02:06:42.968Z,99952.72
2022-10-01T02:09:31.198Z,99952.63
2022-10-01T02:12:30.300Z,99948.78
2022-10-01T02:15:36.121Z,99942.03
2022-10-01T02:18:13.474Z,99949.75
2022-10-01T02:20:47.809Z,99942.03
2022-10-01T02:23:29.116Z,99947.72
2022-10-01T02:26:00.451Z,99946.06
2022-10-01T02:28:31.464Z,99976.88
2022-10-01T02:31:01.081Z,99965.88
2022-10-01T02:33:32.518Z,99949.47
2022-10-01T02:36:01.138Z,99941.38
2022-10-01T02:38:28.858Z,99913.03
2022-10-01T02:41:00.853Z,99876.66
2022-10-01T02:43:32.193Z,99841.59
2022-10-01T02:46:07.477Z,99823.97
2022-10-01T02:48:34.255Z,99874.25
2022-10-01T02:51:15.817Z,99895.19
2022-10-01T02:53:47.306Z,99885.53
2022-10-01T02:56:37.232Z,99877.53
2022-10-01T02:59:07.441Z,99850.56
2022-10-01T03:01:35.861Z,99875.34
2022-10-01T03:04:02.625Z,99879.72
2022-10-01T03:06:29.076Z,99869.66
2022-10-01T03:08:57.363Z,99857.69
2022-10-01T03:11:23.791Z,99842.44
2022-10-01T03:13:50.188Z,99849.63
2022-10-01T03:16:16.684Z,99853.03
2022-10-01T03:18:43.133Z,99843.25
2022-10-01T03:21:09.570Z,99821.66
2022-10-01T03:23:36.017Z,99824.94
2022-10-01T03:26:02.439Z,99818.38
2022-10-01T03:28:28.888Z,99812.31
2022-10-01T03:31:08.017Z,99805.16
2022-10-01T03:33:35.984Z,99811.25
2022-10-01T03:36:05.642Z,99809.03
2022-10-01T03:38:32.104Z,99799.97
2022-10-01T03:40:58.582Z,99786.03
2022-10-01T03:43:28.910Z,99781.63
2022-10-01T03:45:56.589Z,99766.44
2022-10-01T03:48:23.433Z,99732.78
2022-10-01T03:50:57.653Z,99716.63
2022-10-01T03:53:26.382Z,99723.38
2022-10-01T03:55:53.658Z,99738.09
2022-10-01T03:58:20.230Z,99743.44
2022-10-01T04:00:50.309Z,99743.69
2022-10-01T04:03:17.707Z,99743.59
2022-10-01T04:05:45.358Z,99742.09
2022-10-01T04:08:12.914Z,99761.19
2022-10-01T04:10:39.346Z,99771.03
2022-10-01T04:13:06.811Z,99785.59
2022-10-01T04:15:33.464Z,99775.47
2022-10-01T04:18:02.191Z,99754.66
2022-10-01T04:20:28.638Z,99775.66
2022-10-01T04:22:55.069Z,99783.91
2022-10-01T04:25:21.539Z,99790.09
2022-10-01T04:27:59.845Z,99813.88
2022-10-01T04:30:29.018Z,99826.97
2022-10-01T04:32:55.516Z,99800.94
2022-10-01T04:35:22.680Z,99801.97
2022-10-01T04:37:56.672Z,99805.94
2022-10-01T04:40:23.387Z,99792.38
2022-10-01T04:42:49.848Z,99811.75
2022-10-01T04:45:16.372Z,99785.34
2022-10-01T04:47:54.157Z,99789.75
2022-10-01T04:50:21.780Z,99774.72
2022-10-01T04:52:48.449Z,99777.78
2022-10-01T04:55:16.277Z,99775.22
2022-10-01T04:57:44.060Z,99785.03
2022-10-01T05:00:13.854Z,99770.06
2022-10-01T05:02:40.524Z,99767.31
2022-10-01T05:05:08.071Z,99766.78
2022-10-01T05:07:35.666Z,99773.66
2022-10-01T05:10:02.244Z,99781.75
2022-10-01T05:12:28.778Z,99770.31
2022-10-01T05:14:56.198Z,99775.91
2022-10-01T05:17:23.044Z,99772.19
2022-10-01T05:19:50.480Z,99787.88
2022-10-01T05:22:16.992Z,99797.25
2022-10-01T05:24:43.707Z,99788.41
2022-10-01T05:27:12.110Z,99774.47
2022-10-01T05:29:41.976Z,99765.59
2022-10-01T05:32:10.071Z,99782.19
2022-10-01T05:34:36.677Z,99773.28
2022-10-01T05:37:03.376Z,99796.41
2022-10-01T05:39:30.596Z,99796.25
2022-10-01T05:41:57.830Z,99790.03
2022-10-01T05:44:25.327Z,99794.16
2022-10-01T05:46:54.720Z,99791.53
2022-10-01T05:49:24.403Z,99800.91
2022-10-01T05:51:50.906Z,99809.41
2022-10-01T05:54:19.491Z,99799.78
2022-10-01T05:56:46.200Z,99800.09
2022-10-01T05:59:12.616Z,99805.34
2022-10-01T06:01:39.086Z,99810.59
2022-10-01T06:04:05.582Z,99808.63
2022-10-01T06:06:32.089Z,99803.38
2022-10-01T06:08:59.410Z,99820.47
2022-10-01T06:11:26.868Z,99828.97
2022-10-01T06:13:53.311Z,99828.16
2022-10-01T06:16:20.924Z,99824.56
2022-10-01T06:18:49.245Z,99828.97
2022-10-01T06:21:15.891Z,99838.47
2022-10-01T06:23:44.339Z,99838.19
2022-10-01T06:26:10.736Z,99850.59
2022-10-01T06:28:37.166Z,99847.84
2022-10-01T06:31:04.293Z,99846.66
2022-10-01T06:33:30.887Z,99858.47
2022-10-01T06:35:57.356Z,99840.44
2022-10-01T06:38:25.419Z,99849.53
2022-10-01T06:40:57.473Z,99841.06
2022-10-01T06:43:29.215Z,99841.28
2022-10-01T06:45:56.312Z,99840.81
2022-10-01T06:48:23.381Z,99847.16
2022-10-01T06:50:52.182Z,99853.63
2022-10-01T06:53:18.887Z,99855.03
2022-10-01T06:55:46.182Z,99856.97
2022-10-01T06:58:17.311Z,99852.06
2022-10-01T07:00:45.038Z,99846.72
2022-10-01T07:03:18.274Z,99850.16
2022-10-01T07:05:46.329Z,99850.28
2022-10-01T07:08:13.301Z,99859.59
2022-10-01T07:10:40.632Z,99854.69
2022-10-01T07:13:13.377Z,99869.53
2022-10-01T07:15:40.170Z,99865.94
2022-10-01T07:18:09.451Z,99863.34
2022-10-01T07:20:39.705Z,99868.41
2022-10-01T07:23:10.196Z,99868.00
2022-10-01T07:25:38.892Z,99874.31
2022-10-01T07:28:07.105Z,99881.19
2022-10-01T07:30:34.218Z,99863.69
2022-10-01T07:33:00.700Z,99871.69
2022-10-01T07:35:27.245Z,99867.56
2022-10-01T07:37:55.326Z,99878.69
2022-10-01T07:40:22.438Z,99875.41
2022-10-01T07:42:56.970Z,99879.38
2022-10-01T07:45:24.044Z,99878.69
2022-10-01T07:47:55.522Z,99897.34
2022-10-01T07:50:22.335Z,99882.97
2022-10-01T07:52:56.199Z,99899.19
2022-10-01T07:55:24.351Z,99911.00
2022-10-01T07:57:55.477Z,99909.09
2022-10-01T08:00:23.448Z,99920.22
2022-10-01T08:02:53.558Z,99903.59
2022-10-01T08:05:22.228Z,99911.78
2022-10-01T08:07:49.561Z,99918.59
2022-10-01T08:10:17.989Z,99918.34
2022-10-01T08:12:44.956Z,99927.13
2022-10-01T08:15:14.301Z,99933.97
2022-10-01T08:17:41.475Z,99934.09
2022-10-01T08:20:10.724Z,99943.38
2022-10-01T08:22:41.667Z,99933.91
2022-10-01T08:25:09.087Z,99926.50
2022-10-01T08:27:35.662Z,99942.31
2022-10-01T08:30:02.219Z,99946.81
2022-10-01T08:32:28.914Z,99947.66
2022-10-01T08:34:57.508Z,99952.09
2022-10-01T08:37:27.126Z,99956.56
2022-10-01T08:39:54.654Z,99956.59
2022-10-01T08:42:38.171Z,99961.91
2022-10-01T08:45:20.134Z,99961.75
2022-10-01T08:48:02.488Z,99958.75
2022-10-01T08:50:38.863Z,99969.00
2022-10-01T08:53:11.756Z,99974.97
2022-10-01T08:55:40.141Z,99974.19
2022-10-01T08:58:10.814Z,99964.53
2022-10-01T09:00:43.212Z,99977.19
2022-10-01T09:03:13.947Z,99986.72
2022-10-01T09:06:18.234Z,99998.91
2022-10-01T09:09:03.182Z,99996.47
2022-10-01T09:11:52.855Z,99990.38
2022-10-01T09:14:25.284Z,99990.88
2022-10-01T09:17:11.434Z,100001.53
2022-10-01T09:19:56.928Z,99998.03
2022-10-01T09:22:38.343Z,100007.84
2022-10-01T09:25:14.467Z,100009.78
2022-10-01T09:27:41.047Z,100005.69
2022-10-01T09:30:14.766Z,100002.59
2022-10-01T09:32:51.416Z,100010.00
2022-10-01T09:35:21.092Z,100017.69
2022-10-01T09:37:57.691Z,100029.03
2022-10-01T09:40:34.959Z,100026.06
2022-10-01T09:43:04.092Z,100020.31
2022-10-01T09:45:31.256Z,100024.78
2022-10-01T09:48:05.204Z,100034.50
2022-10-01T09:50:41.061Z,100025.97
2022-10-01T09:53:15.733Z,100014.16
2022-10-01T09:55:52.788Z,100007.44
2022-10-01T09:58:23.042Z,100019.16
2022-10-01T10:00:51.660Z,100013.75
2022-10-01T10:03:27.230Z,100027.22
2022-10-01T10:05:54.983Z,100027.03
2022-10-01T10:08:31.870Z,100023.56
2022-10-01T10:11:01.425Z,100038.50
2022-10-01T10:13:39.315Z,100035.03
2022-10-01T10:16:10.629Z,100042.84
2022-10-01T10:18:40.045Z,100039.09
2022-10-01T10:21:16.275Z,100042.31
2022-10-01T10:23:53.152Z,100047.66
2022-10-01T10:26:31.950Z,100053.97
2022-10-01T10:29:03.379Z,100052.38
2022-10-01T10:31:40.666Z,100059.34
2022-10-01T10:34:49.025Z,100069.19
2022-10-01T10:37:26.284Z,100054.84
2022-10-01T10:39:53.976Z,100062.91
2022-10-01T10:42:22.635Z,100064.84
2022-10-01T10:44:51.285Z,100066.38
2022-10-01T10:47:20.742Z,100070.63
2022-10-01T10:49:55.000Z,100067.63
2022-10-01T10:52:33.172Z,100069.09
2022-10-01T10:55:01.776Z,100070.75
2022-10-01T10:57:34.395Z,100073.84
2022-10-01T11:00:22.653Z,100074.25
2022-10-01T11:03:01.999Z,100079.13
2022-10-01T11:05:32.069Z,100087.22
2022-10-01T11:08:00.889Z,100083.72
2022-10-01T11:10:47.461Z,100086.81
2022-10-01T11:13:33.490Z,100092.41
2022-10-01T11:16:28.042Z,100091.25
2022-10-01T11:19:09.778Z,100102.19
2022-10-01T11:21:58.074Z,100085.88
2022-10-01T11:24:56.092Z,100101.06
2022-10-01T11:27:45.736Z,100104.91
2022-10-01T11:30:24.940Z,100109.78
2022-10-01T11:33:12.842Z,100123.97
2022-10-01T11:35:49.304Z,100122.97
2022-10-01T11:38:15.663Z,100133.22
2022-10-01T11:40:45.594Z,100133.31
2022-10-01T11:43:27.293Z,100125.34
2022-10-01T11:45:59.966Z,100124.91
2022-10-01T11:48:33.184Z,100140.75
2022-10-01T11:51:12.461Z,100139.47
2022-10-01T11:53:45.455Z,100132.47
2022-10-01T11:56:42.881Z,100136.84
2022-10-01T11:59:22.519Z,100138.44
2022-10-01T12:02:03.220Z,100150.31
2022-10-01T12:04:41.959Z,100145.53
2022-10-01T12:07:15.321Z,100146.78
2022-10-01T12:10:00.677Z,100153.16
2022-10-01T12:12:36.928Z,100157.53
2022-10-01T12:15:16.419Z,100163.44
2022-10-01T12:17:45.699Z,100163.88
2022-10-01T12:20:34.202Z,100164.97
2022-10-01T12:23:05.411Z,100170.31
2022-10-01T12:25:57.243Z,100169.25
2022-10-01T12:28:42.613Z,100164.81
2022-10-01T12:31:49.529Z,100174.38
2022-10-01T12:34:37.818Z,100169.53
2022-10-01T12:37:19.647Z,100179.19
2022-10-01T12:40:07.087Z,100182.16
2022-10-01T12:43:18.426Z,100179.34
2022-10-01T12:46:15.462Z,100187.00
2022-10-01T12:49:10.762Z,100184.53
2022-10-01T12:51:40.222Z,100190.06
2022-10-01T12:54:33.615Z,100194.91
2022-10-01T12:57:23.129Z,100188.56
2022-10-01T13:00:05.095Z,100191.78
2022-10-01T13:02:48.537Z,100207.00
2022-10-01T13:05:30.219Z,100215.28
2022-10-01T13:08:09.181Z,100216.16
2022-10-01T13:11:00.391Z,100204.22
2022-10-01T13:13:28.225Z,100215.66
2022-10-01T13:16:07.036Z,100217.63
2022-10-01T13:18:51.460Z,100214.81
2022-10-01T13:22:00.147Z,100223.56
2022-10-01T13:24:49.904Z,100200.28
2022-10-01T13:27:35.851Z,100226.25
2022-10-01T13:30:12.490Z,100220.50
2022-10-01T13:33:21.425Z,100228.84
2022-10-01T13:35:54.948Z,100241.47
2022-10-01T13:38:30.230Z,100234.25
2022-10-01T13:41:00.125Z,100248.06
2022-10-01T13:43:27.423Z,100231.69
2022-10-01T13:45:55.480Z,100229.78
2022-10-01T13:48:30.550Z,100231.19
2022-10-01T13:51:10.706Z,100219.84
2022-10-01T13:53:43.201Z,100252.34
2022-10-01T13:56:13.041Z,100258.50
2022-10-01T13:58:41.697Z,100259.31
2022-10-01T14:01:21.543Z,100264.66
2022-10-01T14:04:08.803Z,100263.47
2022-10-01T14:06:35.506Z,100268.59
2022-10-01T14:09:20.602Z,100269.38
2022-10-01T14:12:32.690Z,100269.78
2022-10-01T14:15:20.906Z,100279.22
2022-10-01T14:17:52.987Z,100275.44
2022-10-01T14:20:24.023Z,100277.06
2022-10-01T14:23:05.700Z,100288.09
2022-10-01T14:25:32.058Z,100280.63
2022-10-01T14:28:26.995Z,100287.59
2022-10-01T14:31:05.033Z,100293.13
2022-10-01T14:33:51.399Z,100288.81
2022-10-01T14:36:32.346Z,100303.31
2022-10-01T14:39:13.864Z,100301.91
2022-10-01T14:41:40.392Z,100311.34
2022-10-01T14:44:31.621Z,100306.22
2022-10-01T14:46:59.793Z,100308.69
2022-10-01T14:49:32.260Z,100317.47
2022-10-01T14:52:02.650Z,100321.06
2022-10-01T14:54:31.099Z,100324.41
2022-10-01T14:56:57.709Z,100317.25
2022-10-01T14:59:35.686Z,100333.78
2022-10-01T15:02:16.017Z,100333.59
2022-10-01T15:04:51.533Z,100343.22
2022-10-01T15:07:18.635Z,100342.94
2022-10-01T15:09:46.338Z,100347.16
2022-10-01T15:12:19.015Z,100364.41
2022-10-01T15:14:47.160Z,100364.63
2022-10-01T15:17:21.294Z,100370.56
2022-10-01T15:19:52.203Z,100365.00
2022-10-01T15:22:27.690Z,100368.25
2022-10-01T15:24:59.564Z,100376.34
2022-10-01T15:27:26.382Z,100379.66
2022-10-01T15:29:56.883Z,100381.66
2022-10-01T15:32:25.522Z,100389.00
2022-10-01T15:34:55.027Z,100388.91
2022-10-01T15:37:30.925Z,100391.34
2022-10-01T15:39:59.104Z,100401.75
2022-10-01T15:42:32.763Z,100413.66
2022-10-01T15:45:08.271Z,100413.94
2022-10-01T15:47:50.084Z,100420.44
2022-10-01T15:50:21.647Z,100422.34
2022-10-01T15:52:54.164Z,100422.94
2022-10-01T15:55:26.477Z,100435.03
2022-10-01T15:57:56.029Z,100431.53
2022-10-01T16:00:32.081Z,100433.44
2022-10-01T16:02:59.028Z,100431.53
2022-10-01T16:05:38.273Z,100443.47
2022-10-01T16:08:05.556Z,100458.00
2022-10-01T16:10:33.697Z,100454.31
2022-10-01T16:13:00.517Z,100449.56
2022-10-01T16:15:30.773Z,100453.56
2022-10-01T16:18:02.447Z,100457.66
2022-10-01T16:20:37.399Z,100454.09
2022-10-01T16:23:33.783Z,100466.75
2022-10-01T16:26:01.003Z,100467.81
2022-10-01T16:28:33.260Z,100484.78
2022-10-01T16:31:00.498Z,100488.16
2022-10-01T16:33:27.040Z,100486.78
2022-10-01T16:36:08.514Z,100485.25
2022-10-01T16:38:34.984Z,100496.88
2022-10-01T16:41:02.367Z,100486.69
2022-10-01T16:43:28.803Z,100506.31
2022-10-01T16:45:55.351Z,100508.38
2022-10-01T16:48:24.668Z,100509.88
2022-10-01T16:50:53.713Z,100516.41
2022-10-01T16:53:20.837Z,100526.84
2022-10-01T16:55:47.348Z,100541.03
2022-10-01T16:58:14.054Z,100540.88
2022-10-01T17:00:40.608Z,100546.28
2022-10-01T17:03:13.930Z,100550.31
2022-10-01T17:05:40.397Z,100555.13
2022-10-01T17:08:11.361Z,100556.09
2022-10-01T17:10:42.877Z,100558.31
2022-10-01T17:13:10.148Z,100561.88
2022-10-01T17:15:36.630Z,100562.47
2022-10-01T17:18:03.178Z,100568.06
2022-10-01T17:20:30.456Z,100577.78
2022-10-01T17:22:58.252Z,100580.47
2022-10-01T17:25:32.140Z,100587.13
2022-10-01T17:28:01.543Z,100583.25
2022-10-01T17:30:29.299Z,100588.38
2022-10-01T17:32:57.297Z,100606.16
2022-10-01T17:35:23.948Z,100605.31
2022-10-01T17:37:50.397Z,100601.38
2022-10-01T17:40:16.935Z,100610.88
2022-10-01T17:42:43.391Z,100617.38
2022-10-01T17:45:12.615Z,100625.97
2022-10-01T17:47:46.945Z,100630.72
2022-10-01T17:50:15.258Z,100640.06
2022-10-01T17:52:41.877Z,100642.63
2022-10-01T17:55:08.931Z,100648.78
2022-10-01T17:57:35.382Z,100655.25
2022-10-01T18:00:02.434Z,100668.94
2022-10-01T18:02:41.470Z,100669.59
2022-10-01T18:05:12.496Z,100667.63
2022-10-01T18:07:39.540Z,100684.94
2022-10-01T18:10:08.829Z,100690.19
2022-10-01T18:12:35.441Z,100700.59
2022-10-01T18:15:02.238Z,100700.59
2022-10-01T18:17:29.231Z,100705.16
2022-10-01T18:19:57.061Z,100704.16
2022-10-01T18:22:23.684Z,100702.50
2022-10-01T18:24:50.232Z,100711.41
2022-10-01T18:27:16.901Z,100718.47
2022-10-01T18:29:43.469Z,100713.34
2022-10-01T18:32:22.684Z,100716.44
2022-10-01T18:34:54.491Z,100718.41
2022-10-01T18:37:28.296Z,100739.28
2022-10-01T18:40:18.414Z,100737.94
2022-10-01T18:43:06.766Z,100741.81
2022-10-01T18:45:41.197Z,100737.19
2022-10-01T18:48:17.102Z,100737.75
2022-10-01T18:50:47.417Z,100754.97
2022-10-01T18:53:21.134Z,100752.53
2022-10-01T18:56:18.056Z,100760.44
2022-10-01T18:59:15.517Z,100763.41
2022-10-01T19:01:57.188Z,100761.91
2022-10-01T19:04:41.896Z,100771.06
2022-10-01T19:07:39.786Z,100773.25
2022-10-01T19:10:45.954Z,100786.16
2022-10-01T19:13:29.214Z,100790.75
2022-10-01T19:16:38.016Z,100793.09
2022-10-01T19:19:19.605Z,100792.84
2022-10-01T19:21:49.451Z,100791.31
2022-10-01T19:24:25.781Z,100809.31
2022-10-01T19:26:55.172Z,100818.06
2022-10-01T19:29:58.962Z,100802.97
2022-10-01T19:32:34.635Z,100803.13
2022-10-01T19:35:12.019Z,100809.06
2022-10-01T19:38:02.599Z,100807.44
2022-10-01T19:40:36.804Z,100811.16
2022-10-01T19:43:25.268Z,100805.63
2022-10-01T19:46:18.020Z,100819.28
2022-10-01T19:49:08.716Z,100823.13
2022-10-01T19:51:46.402Z,100820.78
2022-10-01T19:54:18.265Z,100821.63
2022-10-01T19:56:47.744Z,100814.56
2022-10-01T19:59:19.721Z,100821.75
2022-10-01T20:01:51.649Z,100827.81
2022-10-01T20:04:40.696Z,100829.63
2022-10-01T20:07:15.823Z,100831.56
2022-10-01T20:09:46.400Z,100849.22
2022-10-01T20:12:24.726Z,100841.63
2022-10-01T20:15:09.485Z,100843.69
2022-10-01T20:18:13.157Z,100853.50
2022-10-01T20:21:14.007Z,100858.63
2022-10-01T20:23:54.333Z,100858.88
2022-10-01T20:26:29.905Z,100869.38
2022-10-01T20:29:20.308Z,100869.78
2022-10-01T20:32:15.758Z,100863.97
2022-10-01T20:35:01.531Z,100867.56
2022-10-01T20:37:38.066Z,100876.53
2022-10-01T20:40:04.565Z,100861.34
2022-10-01T20:42:38.419Z,100869.91
2022-10-01T20:45:14.348Z,100875.25
2022-10-01T20:47:49.756Z,100872.78
2022-10-01T20:50:24.752Z,100882.31
2022-10-01T20:53:17.610Z,100880.66
2022-10-01T20:55:50.925Z,100895.00
2022-10-01T20:58:25.292Z,100896.94
2022-10-01T21:00:59.549Z,100895.25
2022-10-01T21:03:39.112Z,100901.47
2022-10-01T21:06:13.672Z,100915.69
2022-10-01T21:08:57.101Z,100913.06
2022-10-01T21:11:31.767Z,100913.31
2022-10-01T21:14:07.268Z,100919.50
2022-10-01T21:16:46.227Z,100916.66
2022-10-01T21:19:42.238Z,100916.66
2022-10-01T21:22:55.177Z,100927.13
2022-10-01T21:25:34.523Z,100919.00
2022-10-01T21:28:29.006Z,100919.13
2022-10-01T21:31:19.609Z,100926.16
2022-10-01T21:33:53.982Z,100927.94
2022-10-01T21:36:37.801Z,100922.72
2022-10-01T21:39:20.997Z,100930.56
2022-10-01T21:42:01.592Z,100936.78
2022-10-01T21:44:57.188Z,100935.25
2022-10-01T21:47:49.778Z,100944.09
2022-10-01T21:50:28.336Z,100945.88
2022-10-01T21:53:13.777Z,100939.91
2022-10-01T21:55:52.637Z,100945.16
2022-10-01T21:58:54.601Z,100946.97
2022-10-01T22:01:27.354Z,100947.94
2022-10-01T22:04:17.918Z,100945.31
2022-10-01T22:07:01.932Z,100961.06
2022-10-01T22:09:39.112Z,100961.28
2022-10-01T22:12:07.209Z,100960.47
2022-10-01T22:14:33.664Z,100972.91
2022-10-01T22:17:15.595Z,100979.78
2022-10-01T22:19:46.643Z,100983.22
2022-10-01T22:22:20.918Z,100983.50
2022-10-01T22:24:51.176Z,100979.09
2022-10-01T22:27:27.648Z,100992.91
2022-10-01T22:30:01.973Z,100988.34
2022-10-01T22:32:33.476Z,100997.63
2022-10-01T22:35:06.894Z,100992.94
2022-10-01T22:37:53.915Z,100993.53
2022-10-01T22:40:35.937Z,100987.88
2022-10-01T22:43:11.632Z,100996.47
2022-10-01T22:46:08.945Z,100995.53
2022-10-01T22:48:53.243Z,101001.47
2022-10-01T22:51:31.969Z,100994.16
2022-10-01T22:54:13.784Z,101001.47
2022-10-01T22:56:52.436Z,101007.66
2022-10-01T22:59:32.549Z,101003.97
2022-10-01T23:02:17.239Z,101003.97
2022-10-01T23:05:27.784Z,101010.72
2022-10-01T23:08:08.390Z,101014.75
2022-10-01T23:11:00.023Z,101012.00
2022-10-01T23:13:54.845Z,101006.63
2022-10-01T23:16:30.119Z,101005.53
2022-10-01T23:19:20.837Z,100998.22
2022-10-01T23:22:00.329Z,101011.06
2022-10-01T23:24:41.246Z,101005.84
2022-10-01T23:27:15.596Z,101004.88
2022-10-01T23:30:09.138Z,101008.22
2022-10-01T23:32:50.145Z,101001.28
2022-10-01T23:35:22.279Z,101009.72
2022-10-01T23:37:49.949Z,101012.09
2022-10-01T23:40:23.100Z,101021.75
2022-10-01T23:43:00.479Z,101021.91
2022-10-01T23:45:56.926Z,101024.66
2022-10-01T23:48:48.376Z,101018.56
2022-10-01T23:51:30.652Z,101020.38
2022-10-01T23:54:13.223Z,101013.88
2022-10-01T23:56:49.822Z,101012.09
2022-10-01T23:59:19.802Z,101018.03
